createdAt,value
2022-11-24T00:01:06.991Z,79.18
2022-11-24T00:03:33.715Z,79.12
2022-11-24T00:06:08.883Z,79.10
2022-11-24T00:08:35.604Z,79.15
2022-11-24T00:11:11.457Z,79.41
2022-11-24T00:13:41.217Z,79.20
2022-11-24T00:16:19.687Z,79.29
2022-11-24T00:18:48.266Z,79.70
2022-11-24T00:21:16.766Z,79.52
2022-11-24T00:23:44.279Z,79.47
2022-11-24T00:26:16.595Z,79.26
2022-11-24T00:28:44.315Z,79.42
2022-11-24T00:31:17.845Z,79.47
2022-11-24T00:33:46.178Z,79.63
2022-11-24T00:36:13.037Z,79.35
2022-11-24T00:38:39.523Z,79.60
2022-11-24T00:41:06.414Z,79.50
2022-11-24T00:43:33.291Z,79.41
2022-11-24T00:45:59.907Z,79.53
2022-11-24T00:48:26.548Z,79.78
2022-11-24T00:51:04.426Z,79.38
2022-11-24T00:53:30.971Z,79.72
2022-11-24T00:55:57.393Z,79.80
2022-11-24T00:58:24.707Z,79.68
2022-11-24T01:00:52.386Z,79.47
2022-11-24T01:03:20.210Z,79.51
2022-11-24T01:05:46.756Z,79.64
2022-11-24T01:08:13.142Z,79.69
2022-11-24T01:10:39.754Z,79.68
2022-11-24T01:13:06.258Z,79.55
2022-11-24T01:15:35.583Z,79.68
2022-11-24T01:18:02.772Z,79.83
2022-11-24T01:20:30.486Z,80.08
2022-11-24T01:22:57.001Z,79.69
2022-11-24T01:25:23.663Z,79.56
2022-11-24T01:27:50.079Z,79.65
2022-11-24T01:30:16.768Z,79.58
2022-11-24T01:32:43.134Z,79.83
2022-11-24T01:35:09.922Z,79.66
2022-11-24T01:37:36.301Z,79.49
2022-11-24T01:40:02.727Z,80.02
2022-11-24T01:42:40.310Z,79.61
2022-11-24T01:45:30.959Z,79.76
2022-11-24T01:47:57.512Z,79.83
2022-11-24T01:50:24.575Z,79.42
2022-11-24T01:52:54.154Z,79.51
2022-11-24T01:55:25.623Z,79.29
2022-11-24T01:57:59.292Z,79.74
2022-11-24T02:00:25.865Z,79.31
2022-11-24T02:02:53.008Z,79.35
2022-11-24T02:05:28.223Z,79.61
2022-11-24T02:07:56.894Z,79.28
2022-11-24T02:10:23.645Z,79.66
2022-11-24T02:12:52.495Z,79.36
2022-11-24T02:15:19.988Z,79.34
2022-11-24T02:17:46.388Z,79.39
2022-11-24T02:20:13.957Z,79.55
2022-11-24T02:23:03.336Z,79.62
2022-11-24T02:25:50.400Z,79.42
2022-11-24T02:28:20.852Z,79.57
2022-11-24T02:30:48.190Z,80.01
2022-11-24T02:33:15.231Z,79.51
2022-11-24T02:35:41.998Z,79.52
2022-11-24T02:38:12.656Z,79.82
2022-11-24T02:40:41.247Z,79.63
2022-11-24T02:43:12.343Z,80.08
2022-11-24T02:45:39.038Z,79.85
2022-11-24T02:48:05.834Z,79.90
2022-11-24T02:50:32.438Z,79.79
2022-11-24T02:52:58.815Z,79.86
2022-11-24T02:55:25.421Z,79.76
2022-11-24T02:57:51.871Z,79.96
2022-11-24T03:00:18.750Z,80.00
2022-11-24T03:02:45.289Z,79.53
2022-11-24T03:05:12.591Z,79.76
2022-11-24T03:07:39.130Z,80.10
2022-11-24T03:10:06.187Z,79.65
2022-11-24T03:12:32.588Z,79.75
2022-11-24T03:14:58.992Z,80.10
2022-11-24T03:17:25.396Z,80.08
2022-11-24T03:19:51.773Z,79.91
2022-11-24T03:22:18.193Z,79.84
2022-11-24T03:24:44.625Z,80.09
2022-11-24T03:27:11.010Z,80.04
2022-11-24T03:29:37.367Z,80.12
2022-11-24T03:32:04.012Z,79.66
2022-11-24T03:34:30.412Z,79.77
2022-11-24T03:36:56.811Z,80.00
2022-11-24T03:39:23.194Z,80.22
2022-11-24T03:41:51.376Z,80.01
2022-11-24T03:44:18.264Z,79.78
2022-11-24T03:46:45.104Z,79.75
2022-11-24T03:49:11.632Z,80.16
2022-11-24T03:51:38.003Z,79.86
2022-11-24T03:54:04.515Z,79.78
2022-11-24T03:56:30.923Z,80.14
2022-11-24T03:58:57.292Z,79.91
2022-11-24T04:01:23.688Z,79.77
2022-11-24T04:03:50.134Z,79.85
2022-11-24T04:06:16.536Z,79.67
2022-11-24T04:08:43.447Z,79.82
2022-11-24T04:11:29.869Z,80.15
2022-11-24T04:13:56.256Z,79.93
2022-11-24T04:16:22.624Z,80.25
2022-11-24T04:18:52.138Z,80.25
2022-11-24T04:21:18.592Z,79.91
2022-11-24T04:23:44.982Z,79.85
2022-11-24T04:26:11.415Z,79.95
2022-11-24T04:28:38.456Z,79.97
2022-11-24T04:31:06.231Z,79.79
2022-11-24T04:33:33.084Z,79.97
2022-11-24T04:35:59.523Z,80.05
2022-11-24T04:39:20.051Z,79.73
2022-11-24T04:41:12.166Z,80.02
2022-11-24T04:43:40.734Z,79.64
2022-11-24T04:46:10.563Z,80.09
2022-11-24T04:48:37.106Z,80.04
2022-11-24T04:51:07.104Z,80.05
2022-11-24T04:53:33.487Z,79.90
2022-11-24T04:55:59.868Z,80.10
2022-11-24T04:58:26.172Z,79.96
2022-11-24T05:00:52.500Z,80.28
2022-11-24T05:03:18.843Z,80.02
2022-11-24T05:05:45.163Z,80.08
2022-11-24T05:08:11.539Z,80.46
2022-11-24T05:10:38.003Z,80.47
2022-11-24T05:13:09.782Z,80.22
2022-11-24T05:15:41.375Z,80.10
2022-11-24T05:18:10.633Z,80.75
2022-11-24T05:20:37.289Z,80.40
2022-11-24T05:23:07.851Z,80.15
2022-11-24T05:25:36.228Z,80.55
2022-11-24T05:28:04.965Z,80.26
2022-11-24T05:30:32.256Z,80.32
2022-11-24T05:32:58.807Z,80.46
2022-11-24T05:35:25.426Z,80.18
2022-11-24T05:37:51.888Z,80.40
2022-11-24T05:40:18.504Z,80.45
2022-11-24T05:42:47.960Z,80.39
2022-11-24T05:45:18.342Z,80.44
2022-11-24T05:47:45.343Z,80.24
2022-11-24T05:50:14.651Z,80.55
2022-11-24T05:52:41.084Z,80.28
2022-11-24T05:55:08.714Z,80.28
2022-11-24T05:57:35.142Z,80.59
2022-11-24T06:00:01.892Z,80.11
2022-11-24T06:02:28.329Z,80.35
2022-11-24T06:04:54.753Z,80.44
2022-11-24T06:07:21.216Z,80.49
2022-11-24T06:09:47.657Z,80.44
2022-11-24T06:12:14.155Z,80.53
2022-11-24T06:14:40.875Z,80.35
2022-11-24T06:17:07.736Z,80.26
2022-11-24T06:19:37.371Z,80.69
2022-11-24T06:22:06.393Z,80.77
2022-11-24T06:24:33.036Z,80.42
2022-11-24T06:26:59.636Z,80.61
2022-11-24T06:29:25.989Z,80.31
2022-11-24T06:31:52.524Z,80.61
2022-11-24T06:34:18.996Z,80.22
2022-11-24T06:36:45.322Z,80.24
2022-11-24T06:39:11.703Z,80.44
2022-11-24T06:41:38.109Z,80.34
2022-11-24T06:44:05.047Z,80.29
2022-11-24T06:46:31.542Z,80.26
2022-11-24T06:48:59.614Z,80.28
2022-11-24T06:51:27.071Z,80.23
2022-11-24T06:53:53.837Z,80.66
2022-11-24T06:56:21.093Z,80.32
2022-11-24T06:58:50.732Z,80.33
2022-11-24T07:01:21.991Z,80.39
2022-11-24T07:03:48.905Z,79.84
2022-11-24T07:06:16.369Z,80.06
2022-11-24T07:08:43.511Z,79.89
2022-11-24T07:11:13.174Z,80.16
2022-11-24T07:13:39.591Z,79.98
2022-11-24T07:16:16.352Z,80.11
2022-11-24T07:18:44.603Z,80.17
2022-11-24T07:21:11.454Z,80.17
2022-11-24T07:23:38.325Z,79.92
2022-11-24T07:26:07.027Z,80.01
2022-11-24T07:28:36.727Z,80.02
2022-11-24T07:31:07.833Z,80.04
2022-11-24T07:33:34.474Z,79.92
2022-11-24T07:36:02.067Z,79.83
2022-11-24T07:38:29.258Z,79.84
2022-11-24T07:41:02.207Z,79.93
2022-11-24T07:43:31.150Z,79.77
2022-11-24T07:45:57.601Z,80.07
2022-11-24T07:48:23.982Z,79.92
2022-11-24T07:50:55.522Z,79.83
2022-11-24T07:53:22.546Z,80.07
2022-11-24T07:55:56.525Z,80.10
2022-11-24T07:58:23.017Z,79.80
2022-11-24T08:00:49.422Z,80.08
2022-11-24T08:03:16.200Z,80.00
2022-11-24T08:06:07.931Z,80.19
2022-11-24T08:08:33.253Z,80.07
2022-11-24T08:11:04.752Z,79.83
2022-11-24T08:13:31.078Z,80.06
2022-11-24T08:15:57.414Z,79.67
2022-11-24T08:18:24.606Z,80.10
2022-11-24T08:20:50.970Z,80.19
2022-11-24T08:23:17.406Z,79.73
2022-11-24T08:25:43.764Z,79.75
2022-11-24T08:28:10.163Z,79.89
2022-11-24T08:30:36.580Z,80.07
2022-11-24T08:34:04.063Z,80.17
2022-11-24T08:36:30.800Z,80.18
2022-11-24T08:38:58.996Z,80.26
2022-11-24T08:41:27.072Z,80.36
2022-11-24T08:43:54.455Z,80.13
2022-11-24T08:46:21.241Z,80.05
2022-11-24T08:48:52.071Z,80.25
2022-11-24T08:51:22.277Z,80.01
2022-11-24T08:53:48.662Z,79.94
2022-11-24T08:56:15.203Z,80.37
2022-11-24T08:58:41.900Z,79.89
2022-11-24T09:01:13.861Z,80.16
2022-11-24T09:03:46.534Z,79.63
2022-11-24T09:06:15.797Z,79.86
2022-11-24T09:08:42.682Z,79.98
2022-11-24T09:11:11.873Z,80.10
2022-11-24T09:13:38.870Z,79.59
2022-11-24T09:16:07.949Z,79.80
2022-11-24T09:18:34.582Z,80.04
2022-11-24T09:21:12.947Z,79.85
2022-11-24T09:23:40.107Z,80.12
2022-11-24T09:26:08.279Z,80.14
2022-11-24T09:28:35.233Z,79.91
2022-11-24T09:31:03.645Z,79.92
2022-11-24T09:33:31.607Z,80.00
2022-11-24T09:35:58.609Z,80.13
2022-11-24T09:38:25.661Z,80.07
2022-11-24T09:40:55.877Z,80.22
2022-11-24T09:43:29.997Z,80.11
2022-11-24T09:46:20.131Z,80.27
2022-11-24T09:48:50.981Z,80.29
2022-11-24T09:51:22.344Z,79.76
2022-11-24T09:54:03.199Z,79.94
2022-11-24T09:56:34.377Z,80.18
2022-11-24T09:59:06.285Z,79.92
2022-11-24T10:01:36.977Z,80.04
2022-11-24T10:04:06.715Z,80.03
2022-11-24T10:06:47.986Z,79.78
2022-11-24T10:09:24.049Z,80.11
2022-11-24T10:11:58.670Z,80.15
2022-11-24T10:15:02.431Z,79.97
2022-11-24T10:17:39.165Z,79.84
2022-11-24T10:20:14.516Z,79.50
2022-11-24T10:23:02.269Z,79.92
2022-11-24T10:25:50.065Z,79.91
2022-11-24T10:28:16.575Z,79.90
2022-11-24T10:30:43.256Z,79.68
2022-11-24T10:33:19.570Z,79.83
2022-11-24T10:36:07.912Z,80.17
2022-11-24T10:38:45.580Z,79.88
2022-11-24T10:41:20.094Z,80.15
2022-11-24T10:43:46.552Z,80.09
2022-11-24T10:46:23.856Z,79.99
2022-11-24T10:48:53.580Z,80.23
2022-11-24T10:51:41.551Z,79.93
2022-11-24T10:54:16.964Z,79.98
2022-11-24T10:56:45.232Z,79.63
2022-11-24T10:59:24.569Z,79.54
2022-11-24T11:01:54.784Z,79.38
2022-11-24T11:04:26.643Z,79.48
2022-11-24T11:07:07.743Z,79.28
2022-11-24T11:09:34.398Z,78.97
2022-11-24T11:12:36.296Z,78.85
2022-11-24T11:14:57.364Z,78.85
2022-11-24T11:17:35.037Z,78.46
2022-11-24T11:20:04.541Z,78.52
2022-11-24T11:22:34.807Z,78.66
2022-11-24T11:25:19.985Z,78.23
2022-11-24T11:27:46.423Z,78.22
2022-11-24T11:35:48.459Z,78.34
2022-11-24T11:38:15.129Z,78.28
2022-11-24T11:40:43.748Z,78.13
2022-11-24T11:43:26.357Z,77.96
2022-11-24T11:46:24.505Z,77.79
2022-11-24T11:48:50.898Z,77.50
2022-11-24T11:51:39.021Z,77.43
2022-11-24T11:54:27.111Z,77.42
2022-11-24T11:57:17.497Z,77.12
2022-11-24T11:59:49.562Z,77.41
2022-11-24T12:02:18.997Z,77.28
2022-11-24T12:05:19.435Z,77.02
2022-11-24T12:07:54.373Z,77.03
2022-11-24T12:10:33.486Z,77.21
2022-11-24T12:13:42.606Z,77.27
2022-11-24T12:16:18.902Z,77.16
2022-11-24T12:19:16.093Z,76.89
2022-11-24T12:22:09.430Z,76.96
2022-11-24T12:25:01.748Z,77.04
2022-11-24T12:28:19.465Z,76.42
2022-11-24T12:31:06.822Z,76.22
2022-11-24T12:34:01.555Z,75.99
2022-11-24T12:36:41.247Z,76.18
2022-11-24T12:39:32.204Z,75.90
2022-11-24T12:42:11.715Z,76.17
2022-11-24T12:45:06.156Z,76.82
2022-11-24T12:47:57.226Z,76.01
2022-11-24T12:50:27.860Z,75.96
2022-11-24T12:53:03.859Z,75.58
2022-11-24T12:55:33.695Z,75.29
2022-11-24T12:58:11.231Z,75.35
2022-11-24T13:01:00.135Z,75.39
2022-11-24T13:03:47.817Z,75.29
2022-11-24T13:06:30.275Z,75.41
2022-11-24T13:08:56.910Z,75.32
2022-11-24T13:11:23.280Z,75.48
2022-11-24T13:14:06.225Z,75.21
2022-11-24T13:16:41.098Z,75.50
2022-11-24T13:19:23.242Z,75.40
2022-11-24T13:22:00.911Z,75.05
2022-11-24T13:24:37.038Z,75.13
2022-11-24T13:27:16.015Z,75.08
2022-11-24T13:29:44.921Z,75.16
2022-11-24T13:32:11.756Z,74.96
2022-11-24T13:34:42.559Z,74.88
2022-11-24T13:37:34.388Z,74.79
2022-11-24T13:40:12.064Z,74.74
2022-11-24T13:43:02.473Z,74.86
2022-11-24T13:45:41.550Z,74.96
2022-11-24T13:48:20.209Z,74.78
2022-11-24T13:50:49.929Z,74.92
2022-11-24T13:53:29.256Z,74.87
2022-11-24T13:55:59.489Z,74.87
2022-11-24T13:58:36.090Z,74.83
2022-11-24T14:01:08.503Z,74.71
2022-11-24T14:03:38.771Z,74.96
2022-11-24T14:06:05.866Z,74.48
2022-11-24T14:08:38.168Z,74.54
2022-11-24T14:11:13.078Z,74.57
2022-11-24T14:13:39.432Z,74.59
2022-11-24T14:16:08.757Z,74.65
2022-11-24T14:18:40.783Z,74.82
2022-11-24T14:21:37.751Z,74.84
2022-11-24T14:24:24.821Z,74.61
2022-11-24T14:26:51.600Z,74.41
2022-11-24T14:29:23.310Z,74.63
2022-11-24T14:31:54.772Z,74.58
2022-11-24T14:34:23.151Z,74.18
2022-11-24T14:36:50.742Z,74.12
2022-11-24T14:39:19.771Z,74.18
2022-11-24T14:42:00.318Z,74.11
2022-11-24T14:44:35.043Z,73.96
2022-11-24T14:47:37.238Z,74.13
2022-11-24T14:50:13.708Z,74.40
2022-11-24T14:52:54.693Z,74.42
2022-11-24T14:55:31.876Z,74.27
2022-11-24T14:57:59.624Z,74.33
2022-11-24T15:00:29.356Z,74.30
2022-11-24T15:03:01.758Z,74.26
2022-11-24T15:05:51.818Z,74.35
2022-11-24T15:08:18.517Z,74.35
2022-11-24T15:10:45.258Z,74.10
2022-11-24T15:13:37.063Z,74.11
2022-11-24T15:16:15.003Z,74.20
2022-11-24T15:18:42.887Z,74.17
2022-11-24T15:21:15.558Z,74.00
2022-11-24T15:24:05.338Z,74.01
2022-11-24T15:26:36.904Z,74.11
2022-11-24T15:29:08.217Z,74.16
2022-11-24T15:31:34.676Z,74.12
2022-11-24T15:34:01.531Z,74.18
2022-11-24T15:36:28.007Z,74.18
2022-11-24T15:38:54.351Z,74.31
2022-11-24T15:41:25.618Z,74.08
2022-11-24T15:43:58.705Z,74.17
2022-11-24T15:46:26.697Z,74.30
2022-11-24T15:48:53.878Z,74.49
2022-11-24T15:51:20.866Z,74.21
2022-11-24T15:53:55.776Z,74.28
2022-11-24T15:56:34.455Z,74.30
2022-11-24T15:59:01.649Z,74.01
2022-11-24T16:01:31.660Z,73.91
2022-11-24T16:03:58.302Z,73.83
2022-11-24T16:06:25.604Z,73.62
2022-11-24T16:08:55.388Z,73.46
2022-11-24T16:11:22.741Z,73.39
2022-11-24T16:13:53.018Z,73.62
2022-11-24T16:16:20.811Z,74.08
2022-11-24T16:18:47.288Z,73.97
2022-11-24T16:21:13.721Z,74.29
2022-11-24T16:23:40.161Z,74.17
2022-11-24T16:26:06.647Z,74.14
2022-11-24T16:28:33.028Z,74.62
2022-11-24T16:30:59.558Z,74.45
2022-11-24T16:33:25.974Z,74.53
2022-11-24T16:35:52.391Z,74.61
2022-11-24T16:38:19.989Z,74.98
2022-11-24T16:40:59.156Z,75.01
2022-11-24T16:43:25.517Z,75.01
2022-11-24T16:46:17.836Z,74.96
2022-11-24T16:48:45.635Z,75.18
2022-11-24T16:51:13.479Z,74.92
2022-11-24T16:53:40.598Z,75.14
2022-11-24T16:56:07.106Z,75.06
2022-11-24T16:58:33.542Z,75.13
2022-11-24T17:01:07.973Z,75.15
2022-11-24T17:03:37.826Z,75.16
2022-11-24T17:06:06.465Z,75.28
2022-11-24T17:08:34.818Z,75.36
2022-11-24T17:11:08.352Z,75.22
2022-11-24T17:13:34.689Z,75.31
2022-11-24T17:16:08.898Z,75.52
2022-11-24T17:18:35.638Z,75.51
2022-11-24T17:21:07.708Z,75.64
2022-11-24T17:23:35.780Z,75.55
2022-11-24T17:26:03.780Z,75.47
2022-11-24T17:28:30.252Z,75.52
2022-11-24T17:30:57.034Z,75.61
2022-11-24T17:33:23.577Z,75.46
2022-11-24T17:35:49.886Z,75.61
2022-11-24T17:38:16.250Z,75.59
2022-11-24T17:40:48.756Z,75.77
2022-11-24T17:43:15.150Z,75.66
2022-11-24T17:45:41.580Z,75.57
2022-11-24T17:48:08.324Z,75.72
2022-11-24T17:50:34.817Z,75.84
2022-11-24T17:53:01.126Z,75.74
2022-11-24T17:55:27.535Z,75.60
2022-11-24T17:57:53.901Z,75.84
2022-11-24T18:00:20.551Z,76.02
2022-11-24T18:02:46.973Z,76.09
2022-11-24T18:05:13.425Z,75.81
2022-11-24T18:07:39.833Z,75.99
2022-11-24T18:10:06.611Z,75.96
2022-11-24T18:12:32.931Z,76.03
2022-11-24T18:14:59.774Z,76.03
2022-11-24T18:17:26.137Z,75.97
2022-11-24T18:19:52.510Z,75.97
2022-11-24T18:22:19.128Z,76.19
2022-11-24T18:24:54.616Z,76.01
2022-11-24T18:27:20.950Z,76.09
2022-11-24T18:29:50.877Z,75.98
2022-11-24T18:32:19.837Z,76.26
2022-11-24T18:34:46.197Z,76.13
2022-11-24T18:37:14.723Z,75.92
2022-11-24T18:39:42.312Z,76.02
2022-11-24T18:42:09.458Z,76.14
2022-11-24T18:44:36.849Z,76.09
2022-11-24T18:47:04.443Z,76.16
2022-11-24T18:49:31.891Z,76.07
2022-11-24T18:51:58.746Z,76.09
2022-11-24T18:54:27.778Z,76.18
2022-11-24T18:56:56.683Z,76.34
2022-11-24T18:59:26.638Z,76.23
2022-11-24T19:01:53.165Z,76.10
2022-11-24T19:04:19.577Z,75.98
2022-11-24T19:06:46.151Z,76.14
2022-11-24T19:09:15.461Z,76.08
2022-11-24T19:11:44.123Z,76.20
2022-11-24T19:14:13.393Z,76.11
2022-11-24T19:16:40.756Z,76.21
2022-11-24T19:19:07.456Z,76.14
2022-11-24T19:21:37.034Z,76.03
2022-11-24T19:24:05.910Z,76.08
2022-11-24T19:26:35.824Z,75.89
2022-11-24T19:29:03.003Z,75.81
2022-11-24T19:31:29.344Z,75.74
2022-11-24T19:33:57.873Z,76.12
2022-11-24T19:36:24.410Z,76.14
2022-11-24T19:38:55.462Z,75.96
2022-11-24T19:41:24.532Z,75.99
2022-11-24T19:43:53.322Z,75.84
2022-11-24T19:46:20.583Z,75.84
2022-11-24T19:48:54.119Z,76.03
2022-11-24T19:51:23.108Z,75.92
2022-11-24T19:53:49.838Z,75.97
2022-11-24T19:56:18.904Z,75.87
2022-11-24T19:58:46.043Z,75.60
2022-11-24T20:01:14.680Z,75.59
2022-11-24T20:03:42.441Z,75.87
2022-11-24T20:06:10.970Z,76.04
2022-11-24T20:08:39.089Z,75.62
2022-11-24T20:11:11.067Z,75.80
2022-11-24T20:13:39.748Z,75.81
2022-11-24T20:16:10.605Z,75.89
2022-11-24T20:18:42.266Z,75.73
2022-11-24T20:21:14.914Z,75.71
2022-11-24T20:23:41.872Z,75.93
2022-11-24T20:26:11.800Z,75.87
2022-11-24T20:28:38.322Z,75.86
2022-11-24T20:31:07.483Z,75.52
2022-11-24T20:33:35.478Z,75.91
2022-11-24T20:36:07.036Z,75.78
2022-11-24T20:38:34.425Z,76.12
2022-11-24T20:41:09.034Z,75.65
2022-11-24T20:43:36.373Z,75.97
2022-11-24T20:46:10.776Z,75.70
2022-11-24T20:48:38.109Z,75.62
2022-11-24T20:51:05.669Z,75.99
2022-11-24T20:53:32.127Z,75.80
2022-11-24T20:56:06.398Z,75.92
2022-11-24T20:58:35.268Z,75.96
2022-11-24T21:01:15.952Z,76.10
2022-11-24T21:03:45.251Z,75.63
2022-11-24T21:06:13.049Z,75.91
2022-11-24T21:08:41.648Z,76.12
2022-11-24T21:11:11.071Z,75.93
2022-11-24T21:13:39.289Z,75.96
2022-11-24T21:16:16.979Z,75.74
2022-11-24T21:18:44.690Z,76.03
2022-11-24T21:21:12.521Z,76.07
2022-11-24T21:23:39.364Z,76.19
2022-11-24T21:26:11.505Z,75.98
2022-11-24T21:28:42.811Z,76.13
2022-11-24T21:31:15.432Z,76.04
2022-11-24T21:33:44.857Z,75.99
2022-11-24T21:36:12.757Z,76.04
2022-11-24T21:38:39.157Z,76.27
2022-11-24T21:41:07.122Z,76.26
2022-11-24T21:43:34.202Z,76.16
2022-11-24T21:46:11.337Z,76.25
2022-11-24T21:48:38.681Z,76.27
2022-11-24T21:51:08.480Z,76.22
2022-11-24T21:53:36.878Z,76.14
2022-11-24T21:56:09.807Z,76.36
2022-11-24T21:58:36.525Z,76.05
2022-11-24T22:01:05.174Z,76.38
2022-11-24T22:03:31.713Z,76.03
2022-11-24T22:05:59.817Z,76.23
2022-11-24T22:08:27.669Z,76.33
2022-11-24T22:10:59.539Z,76.45
2022-11-24T22:13:25.863Z,76.44
2022-11-24T22:16:03.254Z,76.49
2022-11-24T22:18:31.981Z,76.10
2022-11-24T22:20:58.759Z,76.27
2022-11-24T22:23:25.189Z,76.16
2022-11-24T22:25:51.595Z,76.32
2022-11-24T22:28:18.288Z,76.39
2022-11-24T22:30:44.603Z,76.27
2022-11-24T22:33:11.145Z,76.50
2022-11-24T22:35:37.497Z,76.30
2022-11-24T22:38:03.800Z,76.35
2022-11-24T22:40:30.146Z,76.38
2022-11-24T22:42:58.220Z,76.60
2022-11-24T22:45:24.705Z,76.59
2022-11-24T22:47:55.023Z,76.67
2022-11-24T22:50:21.497Z,76.60
2022-11-24T22:52:49.965Z,76.58
2022-11-24T22:55:16.484Z,76.59
2022-11-24T22:57:47.437Z,76.51
2022-11-24T23:00:16.210Z,76.55
2022-11-24T23:02:42.745Z,76.62
2022-11-24T23:05:09.543Z,76.47
2022-11-24T23:07:36.091Z,76.85
2022-11-24T23:10:03.026Z,76.61
2022-11-24T23:12:29.382Z,76.62
2022-11-24T23:14:55.709Z,76.78
2022-11-24T23:17:22.102Z,76.68
2022-11-24T23:19:48.549Z,76.92
2022-11-24T23:22:14.873Z,76.58
2022-11-24T23:24:41.229Z,76.80
2022-11-24T23:27:07.598Z,76.75
2022-11-24T23:29:33.942Z,77.06
2022-11-24T23:32:00.418Z,77.05
2022-11-24T23:36:53.230Z,76.80
2022-11-24T23:39:19.585Z,76.99
2022-11-24T23:41:45.964Z,76.88
2022-11-24T23:44:12.294Z,77.00
2022-11-24T23:46:38.691Z,77.30
2022-11-24T23:49:05.034Z,77.00
2022-11-24T23:51:33.305Z,77.06
2022-11-24T23:54:00.516Z,77.11
2022-11-24T23:56:31.419Z,77.23
2022-11-24T23:58:58.161Z,77.36
